createdAt,value
2018-10-18T00:00:57.767Z,14.08
2018-10-18T00:01:57.796Z,14.11
2018-10-18T00:02:57.819Z,14.13
2018-10-18T00:03:57.849Z,13.93
2018-10-18T00:04:57.872Z,13.91
2018-10-18T00:05:57.910Z,13.94
2018-10-18T00:06:57.915Z,13.98
2018-10-18T00:07:57.962Z,13.93
2018-10-18T00:08:57.965Z,13.82
2018-10-18T00:09:57.998Z,13.87
2018-10-18T00:10:58.013Z,13.80
2018-10-18T00:11:58.051Z,13.86
2018-10-18T00:12:58.067Z,13.87
2018-10-18T00:13:58.130Z,13.85
2018-10-18T00:14:58.116Z,13.76
2018-10-18T00:15:58.144Z,13.78
2018-10-18T00:16:58.164Z,13.82
2018-10-18T00:17:58.250Z,13.73
2018-10-18T00:18:58.222Z,13.64
2018-10-18T00:19:58.248Z,13.75
2018-10-18T00:20:58.262Z,13.70
2018-10-18T00:21:58.290Z,13.76
2018-10-18T00:22:58.324Z,13.75
2018-10-18T00:23:58.359Z,13.86
2018-10-18T00:24:58.371Z,13.83
2018-10-18T00:25:58.409Z,13.89
2018-10-18T00:26:58.410Z,13.98
2018-10-18T00:27:58.438Z,13.95
2018-10-18T00:28:58.462Z,13.91
2018-10-18T00:29:58.538Z,13.89
2018-10-18T00:30:58.512Z,13.86
2018-10-18T00:31:58.570Z,13.83
2018-10-18T00:32:58.568Z,13.83
2018-10-18T00:33:58.591Z,13.89
2018-10-18T00:34:58.619Z,13.75
2018-10-18T00:35:58.653Z,13.70
2018-10-18T00:36:58.663Z,13.64
2018-10-18T00:37:58.738Z,13.62
2018-10-18T00:38:58.721Z,13.62
2018-10-18T00:39:58.740Z,13.67
2018-10-18T00:40:58.770Z,13.64
2018-10-18T00:41:58.860Z,13.65
2018-10-18T00:42:58.821Z,13.73
2018-10-18T00:43:58.858Z,13.80
2018-10-18T00:44:58.866Z,13.76
2018-10-18T00:45:58.885Z,13.82
2018-10-18T00:46:58.914Z,13.75
2018-10-18T00:47:58.966Z,13.67
2018-10-18T00:48:58.962Z,13.70
2018-10-18T00:49:59.032Z,13.68
2018-10-18T00:50:59.020Z,13.64
2018-10-18T00:51:59.032Z,13.65
2018-10-18T00:52:59.060Z,13.58
2018-10-18T00:53:59.114Z,13.62
2018-10-18T00:54:59.112Z,13.64
2018-10-18T00:55:59.144Z,13.67
2018-10-18T00:56:59.166Z,13.68
2018-10-18T00:57:59.182Z,13.75
2018-10-18T00:58:59.209Z,13.68
2018-10-18T00:59:59.278Z,13.67
2018-10-18T01:00:59.264Z,13.73
2018-10-18T01:01:59.345Z,13.62
2018-10-18T01:02:59.308Z,13.62
2018-10-18T01:03:59.342Z,13.64
2018-10-18T01:04:59.358Z,13.64
2018-10-18T01:05:59.431Z,13.65
2018-10-18T01:06:59.404Z,13.65
2018-10-18T01:07:59.488Z,13.62
2018-10-18T01:08:59.455Z,13.62
2018-10-18T01:09:59.483Z,13.62
2018-10-18T01:10:59.518Z,13.61
2018-10-18T01:11:59.551Z,13.64
2018-10-18T01:12:59.556Z,13.61
2018-10-18T01:13:59.605Z,13.65
2018-10-18T01:14:59.604Z,13.54
2018-10-18T01:15:59.633Z,13.54
2018-10-18T01:16:59.659Z,13.54
2018-10-18T01:17:59.692Z,13.58
2018-10-18T01:18:59.708Z,13.58
2018-10-18T01:19:59.742Z,13.54
2018-10-18T01:20:59.753Z,13.52
2018-10-18T01:21:59.782Z,13.60
2018-10-18T01:22:59.806Z,13.49
2018-10-18T01:23:59.871Z,13.45
2018-10-18T01:24:59.861Z,13.49
2018-10-18T01:25:59.927Z,13.57
2018-10-18T01:26:59.902Z,13.52
2018-10-18T01:27:59.933Z,13.58
2018-10-18T01:28:59.952Z,13.46
2018-10-18T01:30:00.001Z,13.45
2018-10-18T01:31:00.006Z,13.42
2018-10-18T01:32:00.057Z,13.39
2018-10-18T01:33:00.061Z,13.39
2018-10-18T01:34:00.075Z,13.45
2018-10-18T01:35:00.108Z,13.42
2018-10-18T01:36:00.166Z,13.43
2018-10-18T01:37:00.152Z,13.42
2018-10-18T01:38:00.192Z,13.37
2018-10-18T01:39:00.203Z,13.43
2018-10-18T01:40:00.222Z,13.45
2018-10-18T01:41:00.248Z,13.40
2018-10-18T01:42:00.315Z,13.43
2018-10-18T01:43:00.300Z,13.42
2018-10-18T01:44:00.346Z,13.40
2018-10-18T01:45:00.348Z,13.47
2018-10-18T01:46:00.379Z,13.37
2018-10-18T01:47:00.399Z,13.31
2018-10-18T01:48:00.426Z,13.33
2018-10-18T01:49:00.453Z,13.28
2018-10-18T01:50:00.538Z,13.24
2018-10-18T01:51:00.497Z,13.30
2018-10-18T01:52:00.525Z,13.33
2018-10-18T01:53:00.552Z,13.46
2018-10-18T01:54:00.646Z,13.43
2018-10-18T01:55:00.599Z,13.40
2018-10-18T01:56:00.653Z,13.37
2018-10-18T01:57:00.645Z,13.37
2018-10-18T01:58:00.671Z,13.33
2018-10-18T01:59:00.702Z,13.30
2018-10-18T02:00:00.786Z,13.28
2018-10-18T02:01:00.742Z,13.24
2018-10-18T02:02:00.844Z,13.28
2018-10-18T02:03:00.795Z,13.17
2018-10-18T02:04:00.820Z,13.12
2018-10-18T02:05:00.848Z,13.16
2018-10-18T02:06:00.880Z,13.19
2018-10-18T02:07:00.892Z,13.23
2018-10-18T02:08:00.976Z,13.21
2018-10-18T02:09:00.945Z,13.19
2018-10-18T02:10:00.999Z,13.23
2018-10-18T02:11:00.988Z,13.23
2018-10-18T02:12:01.047Z,13.27
2018-10-18T02:13:01.036Z,13.21
2018-10-18T02:14:01.070Z,13.28
2018-10-18T02:15:01.093Z,13.24
2018-10-18T02:16:01.113Z,13.26
2018-10-18T02:17:01.135Z,13.27
2018-10-18T02:18:01.188Z,13.28
2018-10-18T02:19:01.208Z,13.31
2018-10-18T02:20:01.216Z,13.27
2018-10-18T02:21:01.235Z,13.33
2018-10-18T02:22:01.264Z,13.36
2018-10-18T02:23:01.284Z,13.27
2018-10-18T02:24:01.333Z,13.39
2018-10-18T02:25:01.382Z,13.31
2018-10-18T02:26:01.361Z,13.28
2018-10-18T02:27:01.389Z,13.28
2018-10-18T02:28:01.409Z,13.26
2018-10-18T02:29:01.433Z,13.19
2018-10-18T02:30:01.543Z,13.27
2018-10-18T02:31:01.486Z,13.23
2018-10-18T02:32:01.512Z,13.37
2018-10-18T02:33:01.536Z,13.30
2018-10-18T02:34:01.556Z,13.27
2018-10-18T02:35:01.582Z,13.23
2018-10-18T02:36:01.610Z,13.30
2018-10-18T02:37:01.631Z,13.28
2018-10-18T02:38:01.657Z,13.27
2018-10-18T02:39:01.686Z,13.24
2018-10-18T02:40:01.730Z,13.24
2018-10-18T02:41:01.729Z,13.24
2018-10-18T02:42:01.839Z,13.24
2018-10-18T02:43:01.781Z,13.30
2018-10-18T02:44:01.806Z,13.36
2018-10-18T02:45:01.843Z,13.31
2018-10-18T02:46:01.850Z,13.39
2018-10-18T02:47:01.892Z,13.27
2018-10-18T02:48:01.970Z,13.24
2018-10-18T02:49:01.925Z,13.26
2018-10-18T02:50:01.959Z,13.20
2018-10-18T02:51:01.975Z,13.20
2018-10-18T02:52:02.003Z,13.21
2018-10-18T02:53:02.039Z,13.17
2018-10-18T02:54:02.095Z,13.16
2018-10-18T02:55:02.078Z,13.21
2018-10-18T02:56:02.113Z,13.16
2018-10-18T02:57:02.122Z,13.21
2018-10-18T02:58:02.153Z,13.16
2018-10-18T02:59:02.175Z,13.16
2018-10-18T03:00:02.223Z,13.12
2018-10-18T03:01:02.228Z,13.16
2018-10-18T03:02:02.243Z,13.13
2018-10-18T03:03:02.269Z,13.13
2018-10-18T03:04:02.294Z,13.19
2018-10-18T03:05:02.319Z,13.08
2018-10-18T03:06:02.378Z,13.13
2018-10-18T03:07:02.372Z,13.11
2018-10-18T03:08:02.392Z,13.19
2018-10-18T03:09:02.416Z,13.21
2018-10-18T03:10:02.438Z,13.16
2018-10-18T03:11:02.472Z,13.08
2018-10-18T03:12:02.548Z,13.06
2018-10-18T03:13:02.518Z,13.06
2018-10-18T03:14:02.549Z,13.06
2018-10-18T03:15:02.568Z,13.05
2018-10-18T03:16:02.706Z,13.09
2018-10-18T03:17:02.616Z,13.13
2018-10-18T03:18:02.693Z,13.06
2018-10-18T03:19:02.667Z,13.11
2018-10-18T03:20:02.693Z,13.08
2018-10-18T03:21:02.713Z,13.09
2018-10-18T03:22:02.735Z,13.13
2018-10-18T03:23:02.767Z,13.12
2018-10-18T03:24:02.835Z,13.09
2018-10-18T03:25:02.809Z,13.06
2018-10-18T03:26:02.838Z,13.24
2018-10-18T03:27:02.860Z,13.21
2018-10-18T03:28:02.886Z,13.21
2018-10-18T03:29:02.913Z,13.09
2018-10-18T03:30:03.026Z,13.19
2018-10-18T03:31:02.956Z,13.09
2018-10-18T03:32:02.981Z,13.06
2018-10-18T03:33:03.008Z,12.98
2018-10-18T03:34:03.029Z,12.98
2018-10-18T03:35:03.068Z,13.06
2018-10-18T03:36:03.158Z,12.99
2018-10-18T03:37:03.106Z,13.06
2018-10-18T03:38:03.130Z,12.94
2018-10-18T03:39:03.153Z,13.01
2018-10-18T03:40:03.178Z,13.08
2018-10-18T03:41:03.203Z,13.01
2018-10-18T03:42:03.305Z,13.01
2018-10-18T03:43:03.263Z,12.94
2018-10-18T03:44:03.276Z,12.86
2018-10-18T03:45:03.304Z,12.98
2018-10-18T03:46:03.333Z,12.87
2018-10-18T03:47:03.351Z,12.91
2018-10-18T03:48:03.511Z,12.87
2018-10-18T03:49:03.411Z,12.93
2018-10-18T03:50:03.426Z,12.76
2018-10-18T03:51:03.456Z,12.81
2018-10-18T03:52:03.481Z,12.83
2018-10-18T03:53:03.500Z,12.84
2018-10-18T03:54:03.603Z,12.78
2018-10-18T03:55:03.606Z,12.83
2018-10-18T03:56:03.574Z,12.87
2018-10-18T03:57:03.595Z,12.88
2018-10-18T03:58:03.652Z,12.99
2018-10-18T03:59:03.644Z,12.98
2018-10-18T04:00:03.758Z,12.90
2018-10-18T04:01:03.694Z,13.05
2018-10-18T04:02:03.714Z,13.03
2018-10-18T04:03:03.756Z,12.98
2018-10-18T04:04:03.772Z,13.01
2018-10-18T04:05:03.796Z,13.09
2018-10-18T04:06:03.903Z,13.02
2018-10-18T04:07:03.838Z,13.02
2018-10-18T04:08:03.867Z,12.93
2018-10-18T04:09:03.886Z,12.93
2018-10-18T04:10:03.918Z,12.98
2018-10-18T04:11:03.938Z,12.94
2018-10-18T04:12:04.077Z,12.78
2018-10-18T04:13:04.027Z,12.80
2018-10-18T04:14:04.013Z,12.81
2018-10-18T04:15:04.032Z,12.75
2018-10-18T04:16:04.071Z,12.86
2018-10-18T04:17:04.084Z,12.76
2018-10-18T04:18:04.268Z,12.81
2018-10-18T04:19:04.133Z,12.81
2018-10-18T04:20:04.159Z,12.75
2018-10-18T04:21:04.185Z,12.87
2018-10-18T04:22:04.218Z,12.90
2018-10-18T04:23:04.230Z,12.98
2018-10-18T04:24:04.277Z,12.98
2018-10-18T04:25:04.285Z,12.98
2018-10-18T04:26:04.310Z,13.01
2018-10-18T04:27:04.329Z,12.95
2018-10-18T04:28:04.354Z,12.87
2018-10-18T04:29:04.376Z,12.73
2018-10-18T04:30:04.495Z,12.69
2018-10-18T04:31:04.449Z,12.57
2018-10-18T04:32:04.451Z,12.51
2018-10-18T04:33:04.479Z,12.53
2018-10-18T04:34:04.501Z,12.47
2018-10-18T04:35:04.523Z,12.57
2018-10-18T04:36:04.582Z,12.58
2018-10-18T04:37:04.579Z,12.65
2018-10-18T04:38:04.600Z,12.72
2018-10-18T04:39:04.625Z,12.88
2018-10-18T04:40:04.650Z,12.91
2018-10-18T04:41:04.674Z,12.98
2018-10-18T04:42:04.721Z,12.91
2018-10-18T04:43:04.726Z,12.75
2018-10-18T04:44:04.742Z,12.69
2018-10-18T04:45:04.768Z,12.57
2018-10-18T04:46:04.793Z,12.61
2018-10-18T04:47:04.842Z,12.58
2018-10-18T04:48:05.049Z,12.55
2018-10-18T04:49:04.868Z,12.55
2018-10-18T04:50:04.894Z,12.53
2018-10-18T04:51:04.914Z,12.55
2018-10-18T04:52:04.936Z,12.53
2018-10-18T04:53:04.962Z,12.63
2018-10-18T04:54:05.029Z,12.55
2018-10-18T04:55:05.092Z,12.62
2018-10-18T04:56:05.035Z,12.76
2018-10-18T04:57:05.087Z,12.90
2018-10-18T04:58:05.090Z,12.98
2018-10-18T04:59:05.119Z,12.99
2018-10-18T05:00:05.130Z,12.94
2018-10-18T05:01:05.207Z,12.80
2018-10-18T05:02:05.191Z,12.84
2018-10-18T05:03:05.207Z,12.72
2018-10-18T05:04:05.231Z,12.70
2018-10-18T05:05:05.257Z,12.54
2018-10-18T05:06:05.279Z,12.57
2018-10-18T05:07:05.326Z,12.61
2018-10-18T05:08:05.333Z,12.54
2018-10-18T05:09:05.360Z,12.53
2018-10-18T05:10:05.375Z,12.51
2018-10-18T05:11:05.430Z,12.58
2018-10-18T05:12:05.423Z,12.44
2018-10-18T05:13:05.488Z,12.47
2018-10-18T05:14:05.483Z,12.50
2018-10-18T05:15:05.499Z,12.48
2018-10-18T05:16:05.528Z,12.44
2018-10-18T05:17:05.551Z,12.44
2018-10-18T05:18:05.571Z,12.45
2018-10-18T05:19:05.637Z,12.48
2018-10-18T05:20:05.624Z,12.44
2018-10-18T05:21:05.646Z,12.45
2018-10-18T05:22:05.671Z,12.44
2018-10-18T05:23:05.707Z,12.43
2018-10-18T05:24:05.723Z,12.50
2018-10-18T05:25:05.861Z,12.40
2018-10-18T05:26:05.766Z,12.48
2018-10-18T05:27:05.802Z,12.44
2018-10-18T05:28:05.816Z,12.32
2018-10-18T05:29:05.840Z,12.33
2018-10-18T05:30:05.870Z,12.36
2018-10-18T05:31:05.925Z,12.35
2018-10-18T05:32:05.915Z,12.35
2018-10-18T05:33:05.947Z,12.32
2018-10-18T05:34:05.963Z,12.25
2018-10-18T05:35:05.999Z,12.48
2018-10-18T05:36:06.015Z,12.48
2018-10-18T05:37:06.091Z,12.48
2018-10-18T05:38:06.065Z,12.51
2018-10-18T05:39:06.159Z,12.69
2018-10-18T05:40:06.120Z,12.88
2018-10-18T05:41:06.142Z,12.90
2018-10-18T05:42:06.162Z,12.91
2018-10-18T05:43:06.215Z,12.91
2018-10-18T05:44:06.205Z,12.76
2018-10-18T05:45:06.240Z,12.76
2018-10-18T05:46:06.257Z,12.63
2018-10-18T05:47:06.311Z,12.51
2018-10-18T05:48:06.307Z,12.50
2018-10-18T05:49:06.365Z,12.54
2018-10-18T05:50:06.354Z,12.53
2018-10-18T05:51:06.385Z,12.40
2018-10-18T05:52:06.398Z,12.44
2018-10-18T05:53:06.591Z,12.36
2018-10-18T05:54:06.454Z,12.35
2018-10-18T05:55:06.554Z,12.25
2018-10-18T05:56:06.500Z,12.25
2018-10-18T05:57:06.528Z,12.23
2018-10-18T05:58:06.549Z,12.23
2018-10-18T05:59:06.583Z,12.29
2018-10-18T06:00:06.603Z,12.32
2018-10-18T06:01:06.703Z,12.23
2018-10-18T06:02:06.650Z,12.29
2018-10-18T06:03:06.676Z,12.15
2018-10-18T06:04:06.702Z,12.47
2018-10-18T06:05:06.727Z,12.69
2018-10-18T06:06:06.745Z,12.81
2018-10-18T06:07:06.879Z,12.94
2018-10-18T06:08:06.791Z,13.16
2018-10-18T06:09:06.822Z,13.13
2018-10-18T06:10:06.996Z,13.13
2018-10-18T06:11:06.873Z,13.11
2018-10-18T06:12:06.885Z,13.13
2018-10-18T06:13:06.970Z,13.13
2018-10-18T06:14:06.937Z,13.12
2018-10-18T06:15:06.964Z,13.23
2018-10-18T06:16:06.988Z,13.16
2018-10-18T06:17:07.018Z,13.11
2018-10-18T06:18:07.052Z,13.16
2018-10-18T06:19:07.140Z,13.19
2018-10-18T06:20:07.082Z,13.09
2018-10-18T06:21:07.113Z,13.06
2018-10-18T06:22:07.130Z,13.16
2018-10-18T06:23:07.185Z,13.09
2018-10-18T06:24:07.184Z,13.12
2018-10-18T06:25:07.208Z,13.09
2018-10-18T06:26:07.224Z,12.94
2018-10-18T06:27:07.257Z,12.86
2018-10-18T06:28:07.277Z,13.06
2018-10-18T06:29:07.327Z,12.99
2018-10-18T06:30:07.325Z,12.75
2018-10-18T06:31:07.412Z,12.70
2018-10-18T06:32:07.373Z,12.66
2018-10-18T06:33:07.457Z,12.62
2018-10-18T06:34:07.423Z,12.44
2018-10-18T06:35:07.517Z,12.50
2018-10-18T06:36:07.473Z,12.35
2018-10-18T06:37:07.555Z,12.36
2018-10-18T06:38:07.517Z,12.23
2018-10-18T06:39:07.608Z,12.23
2018-10-18T06:40:07.570Z,12.29
2018-10-18T06:41:07.660Z,12.25
2018-10-18T06:42:07.616Z,12.26
2018-10-18T06:43:07.695Z,12.25
2018-10-18T06:44:07.661Z,12.28
2018-10-18T06:45:07.694Z,12.25
2018-10-18T06:46:07.716Z,12.25
2018-10-18T06:47:07.818Z,12.33
2018-10-18T06:48:07.811Z,12.25
2018-10-18T06:49:07.873Z,12.28
2018-10-18T06:50:07.808Z,12.35
2018-10-18T06:51:07.857Z,12.35
2018-10-18T06:52:07.860Z,12.28
2018-10-18T06:53:07.890Z,12.35
2018-10-18T06:54:07.936Z,12.39
2018-10-18T06:55:07.959Z,12.50
2018-10-18T06:56:07.968Z,12.44
2018-10-18T06:57:07.992Z,12.43
2018-10-18T06:58:08.004Z,12.58
2018-10-18T06:59:08.030Z,12.61
2018-10-18T07:00:08.089Z,12.58
2018-10-18T07:01:08.081Z,12.54
2018-10-18T07:02:08.128Z,12.62
2018-10-18T07:03:08.132Z,12.54
2018-10-18T07:04:08.150Z,12.51
2018-10-18T07:05:08.175Z,12.63
2018-10-18T07:06:08.323Z,12.63
2018-10-18T07:07:08.221Z,12.66
2018-10-18T07:08:08.249Z,12.65
2018-10-18T07:09:08.269Z,12.75
2018-10-18T07:10:08.295Z,12.84
2018-10-18T07:11:08.432Z,12.93
2018-10-18T07:12:08.434Z,13.02
2018-10-18T07:13:08.371Z,13.09
2018-10-18T07:14:08.391Z,13.05
2018-10-18T07:15:08.419Z,13.05
2018-10-18T07:16:08.442Z,13.02
2018-10-18T07:17:08.471Z,13.16
2018-10-18T07:18:08.580Z,13.05
2018-10-18T07:19:08.509Z,13.08
2018-10-18T07:20:08.563Z,13.20
2018-10-18T07:21:08.576Z,13.17
2018-10-18T07:22:08.588Z,13.26
2018-10-18T07:23:08.616Z,13.30
2018-10-18T07:24:08.678Z,13.28
2018-10-18T07:25:08.707Z,13.37
2018-10-18T07:26:08.706Z,13.37
2018-10-18T07:27:08.717Z,13.37
2018-10-18T07:28:08.728Z,13.42
2018-10-18T07:29:08.766Z,13.43
2018-10-18T07:30:08.879Z,13.40
2018-10-18T07:31:08.806Z,13.40
2018-10-18T07:32:08.834Z,13.42
2018-10-18T07:33:08.860Z,13.46
2018-10-18T07:34:08.898Z,13.52
2018-10-18T07:35:08.998Z,13.55
2018-10-18T07:36:08.951Z,13.62
2018-10-18T07:37:08.953Z,13.55
2018-10-18T07:38:08.980Z,13.62
2018-10-18T07:39:09.005Z,13.68
2018-10-18T07:40:09.026Z,13.71
2018-10-18T07:41:09.069Z,13.78
2018-10-18T07:42:09.195Z,13.80
2018-10-18T07:43:09.098Z,13.78
2018-10-18T07:44:09.151Z,13.89
2018-10-18T07:45:09.156Z,13.75
2018-10-18T07:46:09.175Z,13.83
2018-10-18T07:47:09.203Z,13.86
2018-10-18T07:48:09.287Z,13.93
2018-10-18T07:49:09.262Z,13.95
2018-10-18T07:50:09.291Z,14.00
2018-10-18T07:51:09.296Z,14.18
2018-10-18T07:52:09.317Z,14.08
2018-10-18T07:53:09.469Z,14.18
2018-10-18T07:54:09.457Z,14.08
2018-10-18T07:55:09.405Z,13.95
2018-10-18T07:56:09.420Z,14.04
2018-10-18T07:57:09.440Z,13.93
2018-10-18T07:58:09.483Z,13.87
2018-10-18T07:59:09.494Z,14.01
2018-10-18T08:00:09.696Z,13.95
2018-10-18T08:01:09.550Z,14.01
2018-10-18T08:02:09.578Z,13.95
2018-10-18T08:03:09.596Z,13.94
2018-10-18T08:04:09.629Z,13.89
2018-10-18T08:05:09.637Z,13.91
2018-10-18T08:06:09.672Z,13.91
2018-10-18T08:07:09.706Z,13.91
2018-10-18T08:08:09.725Z,13.89
2018-10-18T08:09:09.743Z,13.87
2018-10-18T08:10:09.774Z,13.86
2018-10-18T08:11:09.925Z,13.86
2018-10-18T08:12:09.812Z,13.91
2018-10-18T08:13:10.215Z,13.94
2018-10-18T08:14:09.876Z,13.95
2018-10-18T08:15:09.886Z,13.97
2018-10-18T08:16:09.974Z,14.04
2018-10-18T08:17:10.016Z,14.00
2018-10-18T08:18:10.056Z,14.11
2018-10-18T08:19:09.996Z,14.12
2018-10-18T08:20:10.023Z,14.13
2018-10-18T08:21:10.033Z,14.20
2018-10-18T08:22:10.065Z,14.15
2018-10-18T08:23:10.208Z,14.25
2018-10-18T08:24:10.107Z,14.26
2018-10-18T08:25:10.220Z,14.26
2018-10-18T08:26:10.168Z,14.20
2018-10-18T08:27:10.180Z,14.28
2018-10-18T08:28:10.307Z,14.38
2018-10-18T08:29:10.243Z,14.28
2018-10-18T08:30:10.263Z,14.38
2018-10-18T08:31:10.364Z,14.43
2018-10-18T08:32:10.311Z,14.45
2018-10-18T08:33:10.348Z,14.51
2018-10-18T08:34:10.355Z,14.49
2018-10-18T08:35:10.380Z,14.58
2018-10-18T08:36:10.403Z,14.53
2018-10-18T08:37:10.443Z,14.59
2018-10-18T08:38:10.574Z,14.66
2018-10-18T08:39:10.496Z,14.67
2018-10-18T08:40:10.502Z,14.74
2018-10-18T08:41:10.530Z,14.74
2018-10-18T08:42:10.553Z,14.79
2018-10-18T08:43:10.626Z,14.81
2018-10-18T08:44:10.772Z,14.79
2018-10-18T08:45:10.636Z,14.82
2018-10-18T08:46:10.699Z,14.85
2018-10-18T08:47:10.685Z,14.97
2018-10-18T08:48:10.698Z,15.02
2018-10-18T08:49:10.848Z,14.96
2018-10-18T08:50:10.747Z,15.04
2018-10-18T08:51:10.786Z,15.00
2018-10-18T08:52:10.800Z,15.11
2018-10-18T08:53:10.829Z,15.11
2018-10-18T08:54:10.849Z,15.22
2018-10-18T08:55:10.917Z,15.17
2018-10-18T08:56:10.896Z,15.23
2018-10-18T08:57:10.929Z,15.25
2018-10-18T08:58:10.968Z,15.35
2018-10-18T08:59:11.026Z,15.39
2018-10-18T09:00:13.615Z,15.37
2018-10-18T09:01:12.892Z,15.44
2018-10-18T09:02:11.067Z,15.43
2018-10-18T09:03:11.079Z,15.54
2018-10-18T09:04:11.112Z,15.48
2018-10-18T09:05:11.121Z,15.52
2018-10-18T09:06:11.148Z,15.45
2018-10-18T09:07:11.305Z,15.59
2018-10-18T09:08:11.197Z,15.57
2018-10-18T09:09:11.313Z,15.51
2018-10-18T09:10:11.263Z,15.54
2018-10-18T09:11:11.274Z,15.57
2018-10-18T09:12:11.316Z,15.60
2018-10-18T09:13:11.489Z,15.59
2018-10-18T09:14:11.358Z,15.60
2018-10-18T09:15:11.370Z,15.63
2018-10-18T09:16:11.474Z,15.66
2018-10-18T09:17:11.422Z,15.69
2018-10-18T09:18:11.454Z,15.78
2018-10-18T09:19:11.862Z,15.83
2018-10-18T09:20:11.502Z,15.76
2018-10-18T09:21:11.541Z,15.90
2018-10-18T09:22:11.551Z,15.98
2018-10-18T09:23:12.110Z,16.03
2018-10-18T09:24:11.602Z,16.03
2018-10-18T09:25:11.869Z,16.06
2018-10-18T09:26:11.646Z,16.05
2018-10-18T09:27:11.681Z,16.16
2018-10-18T09:28:11.701Z,16.12
2018-10-18T09:29:11.740Z,16.25
2018-10-18T09:30:11.808Z,16.25
2018-10-18T09:31:11.944Z,16.32
2018-10-18T09:32:11.795Z,16.40
2018-10-18T09:33:11.829Z,16.54
2018-10-18T09:34:11.847Z,16.51
2018-10-18T09:35:11.887Z,16.61
2018-10-18T09:36:16.083Z,16.72
2018-10-18T09:37:12.151Z,16.80
2018-10-18T09:38:12.019Z,16.87
2018-10-18T09:39:11.970Z,17.09
2018-10-18T09:40:11.994Z,17.35
2018-10-18T09:41:12.030Z,17.49
2018-10-18T09:42:12.049Z,17.79
2018-10-18T09:43:12.111Z,18.33
2018-10-18T09:44:12.163Z,18.74
2018-10-18T09:45:13.059Z,19.22
2018-10-18T09:46:12.169Z,19.62
2018-10-18T09:47:12.185Z,20.11
2018-10-18T09:48:12.210Z,20.60
2018-10-18T09:49:12.292Z,20.74
2018-10-18T09:50:12.253Z,20.85
2018-10-18T09:51:12.280Z,21.00
2018-10-18T09:52:12.310Z,21.66
2018-10-18T09:53:12.331Z,21.80
2018-10-18T09:54:12.359Z,22.01
2018-10-18T09:55:12.458Z,22.43
2018-10-18T09:56:12.568Z,22.68
2018-10-18T09:57:12.433Z,22.84
2018-10-18T09:58:12.473Z,23.11
2018-10-18T09:59:12.499Z,22.93
2018-10-18T10:00:12.508Z,22.92
2018-10-18T10:01:12.623Z,23.21
2018-10-18T10:02:12.562Z,23.37
2018-10-18T10:03:12.601Z,23.73
2018-10-18T10:04:12.731Z,24.21
2018-10-18T10:05:12.645Z,24.18
2018-10-18T10:06:12.675Z,24.09
2018-10-18T10:07:12.714Z,24.24
2018-10-18T10:08:12.737Z,24.81
2018-10-18T10:09:12.752Z,25.06
2018-10-18T10:10:12.781Z,24.97
2018-10-18T10:11:12.810Z,25.21
2018-10-18T10:12:12.831Z,25.30
2018-10-18T10:13:12.991Z,25.16
2018-10-18T10:14:12.885Z,25.04
2018-10-18T10:15:12.922Z,25.30
2018-10-18T10:16:12.957Z,25.66
2018-10-18T10:17:13.048Z,25.59
2018-10-18T10:18:13.120Z,25.16
2018-10-18T10:19:13.109Z,24.93
2018-10-18T10:20:13.057Z,24.65
2018-10-18T10:21:13.091Z,24.40
2018-10-18T10:22:13.105Z,24.58
2018-10-18T10:23:13.130Z,24.21
2018-10-18T10:24:13.164Z,23.48
2018-10-18T10:25:13.336Z,22.89
2018-10-18T10:26:13.226Z,22.62
2018-10-18T10:27:13.242Z,22.68
2018-10-18T10:28:13.288Z,22.61
2018-10-18T10:29:13.304Z,22.10
2018-10-18T10:30:13.344Z,22.03
2018-10-18T10:31:13.455Z,21.54
2018-10-18T10:32:13.393Z,21.45
2018-10-18T10:33:13.446Z,21.14
2018-10-18T10:34:13.443Z,21.05
2018-10-18T10:35:13.570Z,20.67
2018-10-18T10:36:13.513Z,20.66
2018-10-18T10:37:13.610Z,20.40
2018-10-18T10:38:13.566Z,20.21
2018-10-18T10:39:13.693Z,20.17
2018-10-18T10:40:13.684Z,20.00
2018-10-18T10:41:13.705Z,19.84
2018-10-18T10:42:13.671Z,19.78
2018-10-18T10:43:13.706Z,19.81
2018-10-18T10:44:13.961Z,19.67
2018-10-18T10:45:13.809Z,19.75
2018-10-18T10:46:13.870Z,19.62
2018-10-18T10:47:13.802Z,19.57
2018-10-18T10:48:13.896Z,19.49
2018-10-18T10:49:14.016Z,19.53
2018-10-18T10:50:13.927Z,19.45
2018-10-18T10:51:13.941Z,19.35
2018-10-18T10:52:14.038Z,19.41
2018-10-18T10:53:13.986Z,19.42
2018-10-18T10:54:14.025Z,19.34
2018-10-18T10:55:14.029Z,19.27
2018-10-18T10:56:14.119Z,19.26
2018-10-18T10:57:14.212Z,19.23
2018-10-18T10:58:14.143Z,19.27
2018-10-18T10:59:14.127Z,19.23
2018-10-18T11:00:14.229Z,19.16
2018-10-18T11:01:14.206Z,19.19
2018-10-18T11:02:14.317Z,19.23
2018-10-18T11:03:14.263Z,19.01
2018-10-18T11:04:14.270Z,18.96
2018-10-18T11:05:14.303Z,18.74
2018-10-18T11:06:14.408Z,18.64
2018-10-18T11:07:14.356Z,18.52
2018-10-18T11:08:14.642Z,18.63
2018-10-18T11:09:14.484Z,18.61
2018-10-18T11:10:14.423Z,18.42
2018-10-18T11:11:14.475Z,18.45
2018-10-18T11:12:14.514Z,18.43
2018-10-18T11:13:14.795Z,18.37
2018-10-18T11:14:14.599Z,18.23
2018-10-18T11:15:14.686Z,18.28
2018-10-18T11:16:14.590Z,18.26
2018-10-18T11:17:14.667Z,18.11
2018-10-18T11:18:14.763Z,18.11
2018-10-18T11:19:14.688Z,18.18
2018-10-18T11:20:14.907Z,18.12
2018-10-18T11:21:14.877Z,18.09
2018-10-18T11:22:14.847Z,17.91
2018-10-18T11:23:14.782Z,18.02
2018-10-18T11:24:14.875Z,17.93
2018-10-18T11:25:14.849Z,17.82
2018-10-18T11:26:15.071Z,17.76
2018-10-18T11:27:14.966Z,17.71
2018-10-18T11:28:14.932Z,17.75
2018-10-18T11:29:15.066Z,17.63
2018-10-18T11:30:15.019Z,17.82
2018-10-18T11:31:15.017Z,17.90
2018-10-18T11:32:15.624Z,17.87
2018-10-18T11:33:15.218Z,17.90
2018-10-18T11:34:15.391Z,17.90
2018-10-18T11:35:15.447Z,17.73
2018-10-18T11:36:15.283Z,17.71
2018-10-18T11:37:15.158Z,17.82
2018-10-18T11:38:15.347Z,17.78
2018-10-18T11:39:15.251Z,17.84
2018-10-18T11:40:15.270Z,17.82
2018-10-18T11:41:15.696Z,17.79
2018-10-18T11:42:15.348Z,17.87
2018-10-18T11:43:15.329Z,18.08
2018-10-18T11:44:15.341Z,18.05
2018-10-18T11:45:15.356Z,18.00
2018-10-18T11:46:15.386Z,17.95
2018-10-18T11:47:15.419Z,17.95
2018-10-18T11:48:15.499Z,17.94
2018-10-18T11:49:15.463Z,17.87
2018-10-18T11:50:15.515Z,17.97
2018-10-18T11:51:15.530Z,17.68
2018-10-18T11:52:15.538Z,17.79
2018-10-18T11:53:15.570Z,17.87
2018-10-18T11:54:15.638Z,17.88
2018-10-18T11:55:15.617Z,17.68
2018-10-18T11:56:15.797Z,17.68
2018-10-18T11:57:15.676Z,17.57
2018-10-18T11:58:15.697Z,17.47
2018-10-18T11:59:15.814Z,17.41
2018-10-18T12:00:15.752Z,17.41
2018-10-18T12:01:15.900Z,17.38
2018-10-18T12:02:15.894Z,17.34
2018-10-18T12:03:15.827Z,17.42
2018-10-18T12:04:15.853Z,17.44
2018-10-18T12:05:16.000Z,17.34
2018-10-18T12:07:15.940Z,17.38
2018-10-18T12:08:16.067Z,17.35
2018-10-18T12:09:15.983Z,17.32
2018-10-18T12:10:16.023Z,17.32
2018-10-18T12:11:16.209Z,17.20
2018-10-18T12:12:16.063Z,17.31
2018-10-18T12:13:16.089Z,17.35
2018-10-18T12:14:16.195Z,17.35
2018-10-18T12:15:16.137Z,17.35
2018-10-18T12:16:16.164Z,17.28
2018-10-18T12:17:16.268Z,17.22
2018-10-18T12:18:16.234Z,17.22
2018-10-18T12:19:16.341Z,17.13
2018-10-18T12:20:16.371Z,17.28
2018-10-18T12:21:16.306Z,17.13
2018-10-18T12:22:16.327Z,17.13
2018-10-18T12:23:16.482Z,17.35
2018-10-18T12:24:16.381Z,17.35
2018-10-18T12:25:16.404Z,17.42
2018-10-18T12:26:16.530Z,17.60
2018-10-18T12:27:16.452Z,17.69
2018-10-18T12:28:16.479Z,17.71
2018-10-18T12:29:16.604Z,17.71
2018-10-18T12:30:16.536Z,17.54
2018-10-18T12:31:16.558Z,17.37
2018-10-18T12:32:16.670Z,17.24
2018-10-18T12:33:16.608Z,17.30
2018-10-18T12:34:16.654Z,17.17
2018-10-18T12:35:16.751Z,17.16
2018-10-18T12:36:16.695Z,17.19
2018-10-18T12:37:16.732Z,17.07
2018-10-18T12:38:16.816Z,17.05
2018-10-18T12:39:16.772Z,17.31
2018-10-18T12:40:16.817Z,17.28
2018-10-18T12:41:17.023Z,17.13
2018-10-18T12:42:16.850Z,17.16
2018-10-18T12:43:16.888Z,17.13
2018-10-18T12:44:16.974Z,17.12
2018-10-18T12:45:16.943Z,17.10
2018-10-18T12:46:16.950Z,17.10
2018-10-18T12:47:16.984Z,17.14
2018-10-18T12:48:17.167Z,17.13
2018-10-18T12:49:17.028Z,17.13
2018-10-18T12:50:17.183Z,17.12
2018-10-18T12:51:17.092Z,17.17
2018-10-18T12:52:17.110Z,17.10
2018-10-18T12:53:17.130Z,17.16
2018-10-18T12:54:17.259Z,17.12